Time;durP1;ratioP1;P1;durP2;ratioP2;P2;SDS_P1;SDS_P2;PMS_P1;PMS_P2;Temp;Humidity;BMP_temperature;BMP_pressure;BME280_temperature;BME280_humidity;BME280_pressure;Samples;Min_cycle;Max_cycle;Signal;HPM_P1;HPM_P2
2023/01/14 00:01:28;;;;;;;31.00;4.85;;;6.50;99.90;;;;;;4989540;28;20475;-86
2023/01/14 00:03:55;;;;;;;35.67;4.75;;;6.40;99.90;;;;;;4956397;28;20086;-82
2023/01/14 00:06:23;;;;;;;24.25;3.72;;;6.50;99.90;;;;;;4981374;28;20039;-82
2023/01/14 00:08:57;;;;;;;22.42;3.85;;;6.50;99.90;;;;;;4963521;28;20050;-82
2023/01/14 00:12:08;;;;;;;21.35;3.22;;;6.50;99.90;;;;;;4992854;28;20813;-83
2023/01/14 00:14:09;;;;;;;;;;;6.50;99.90;;;;;;4976445;28;20089;-82
2023/01/14 00:16:35;;;;;;;24.92;3.80;;;6.50;99.90;;;;;;4941975;28;19929;-84
2023/01/14 00:19:01;;;;;;;31.48;4.45;;;6.60;99.90;;;;;;4971887;28;20497;-83
2023/01/14 00:21:27;;;;;;;28.42;3.67;;;6.60;99.90;;;;;;4960023;28;20046;-87
2023/01/14 00:23:53;;;;;;;26.92;3.95;;;6.50;99.90;;;;;;4975883;28;20127;-82
2023/01/14 00:26:20;;;;;;;22.75;3.55;;;6.50;99.90;;;;;;4971435;28;20059;-82
2023/01/14 00:28:47;;;;;;;26.80;3.92;;;6.50;99.90;;;;;;4975855;28;20404;-82
2023/01/14 00:31:15;;;;;;;20.40;3.15;;;6.40;99.90;;;;;;4996200;28;20050;-82
2023/01/14 00:33:42;;;;;;;20.67;3.70;;;6.40;99.90;;;;;;4991322;28;20053;-88
2023/01/14 00:36:10;;;;;;;20.45;3.13;;;6.50;99.90;;;;;;4963423;28;20129;-86
2023/01/14 00:38:36;;;;;;;29.50;4.45;;;6.40;99.90;;;;;;4964993;28;20158;-82
2023/01/14 00:41:14;;;;;;;21.80;3.33;;;6.40;99.90;;;;;;4975118;28;20134;-82
2023/01/14 00:43:42;;;;;;;23.23;3.72;;;6.30;99.90;;;;;;4966995;28;20129;-83
2023/01/14 00:46:12;;;;;;;16.25;3.25;;;6.30;99.90;;;;;;4974582;28;20057;-83
2023/01/14 00:48:38;;;;;;;27.73;3.75;;;6.30;99.90;;;;;;4984078;28;20050;-82
2023/01/14 00:51:05;;;;;;;20.70;3.47;;;6.30;99.90;;;;;;4974480;28;20042;-82
2023/01/14 00:53:31;;;;;;;30.35;4.80;;;6.30;99.90;;;;;;4975731;28;20049;-87
2023/01/14 00:55:57;;;;;;;25.63;3.25;;;6.30;99.90;;;;;;4964841;28;20059;-82
2023/01/14 00:58:23;;;;;;;26.45;2.95;;;6.30;99.90;;;;;;4988010;28;20085;-83
2023/01/14 01:00:50;;;;;;;24.90;3.42;;;6.20;99.90;;;;;;4974501;28;20060;-83
2023/01/14 01:03:16;;;;;;;23.15;3.72;;;6.20;99.90;;;;;;4959337;28;20161;-83
2023/01/14 01:05:42;;;;;;;24.52;3.90;;;6.20;99.90;;;;;;4974346;28;20504;-82
2023/01/14 01:08:12;;;;;;;19.70;3.30;;;6.20;99.90;;;;;;4976227;28;20042;-84
2023/01/14 01:10:38;;;;;;;28.67;4.20;;;6.10;99.90;;;;;;4990591;28;20048;-83
2023/01/14 01:13:05;;;;;;;25.67;3.00;;;6.10;99.90;;;;;;4991306;28;20117;-82
2023/01/14 01:15:37;;;;;;;27.92;2.90;;;6.10;99.90;;;;;;4975634;28;20038;-84
2023/01/14 01:18:04;;;;;;;21.83;2.78;;;6.00;99.90;;;;;;4962313;28;20050;-84
2023/01/14 01:20:31;;;;;;;24.15;4.30;;;5.90;99.90;;;;;;4976279;28;20081;-83
2023/01/14 01:22:57;;;;;;;17.85;2.75;;;5.90;99.90;;;;;;4971793;28;20043;-82
2023/01/14 01:25:23;;;;;;;24.30;3.05;;;6.00;99.90;;;;;;4970185;28;20051;-84
2023/01/14 01:27:48;;;;;;;26.48;3.13;;;5.90;99.90;;;;;;4991312;28;20042;-85
2023/01/14 01:30:15;;;;;;;22.83;3.60;;;5.90;99.90;;;;;;4991885;28;20108;-83
2023/01/14 01:32:41;;;;;;;24.27;3.58;;;5.80;99.90;;;;;;4973345;28;20057;-83
2023/01/14 01:35:07;;;;;;;23.52;2.95;;;5.80;99.90;;;;;;4974094;28;20050;-82
2023/01/14 01:37:33;;;;;;;23.67;3.72;;;5.80;99.90;;;;;;4959305;28;20054;-83
2023/01/14 01:39:58;;;;;;;30.10;4.60;;;5.80;99.90;;;;;;4973215;28;20042;-82
2023/01/14 01:42:28;;;;;;;25.92;3.03;;;5.90;99.90;;;;;;4968375;28;20050;-83
2023/01/14 01:44:53;;;;;;;18.17;2.90;;;5.90;99.90;;;;;;4989360;28;20039;-83
2023/01/14 01:47:22;;;;;;;20.27;3.33;;;5.90;99.90;;;;;;4978274;28;20074;-84
2023/01/14 01:49:48;;;;;;;16.75;3.40;;;5.90;99.90;;;;;;4988322;28;20589;-83
2023/01/14 01:52:28;;;;;;;24.48;3.40;;;5.80;99.90;;;;;;4972056;28;20046;-84
2023/01/14 01:55:00;;;;;;;19.73;3.45;;;5.80;99.90;;;;;;4987048;28;20050;-83
2023/01/14 01:57:26;;;;;;;27.73;3.08;;;5.90;99.90;;;;;;4972491;28;20050;-84
2023/01/14 01:59:59;;;;;;;17.40;3.00;;;6.10;99.90;;;;;;4988244;28;20237;-82
2023/01/14 02:02:27;;;;;;;28.52;3.88;;;6.10;99.90;;;;;;4965571;28;20058;-83
2023/01/14 02:04:52;;;;;;;24.83;5.05;;;6.10;99.90;;;;;;4978271;28;20050;-83
2023/01/14 02:07:24;;;;;;;24.08;4.20;;;6.20;99.90;;;;;;4970834;28;20161;-85
2023/01/14 02:10:04;;;;;;;26.75;3.20;;;6.30;99.90;;;;;;4985028;28;20074;-85
2023/01/14 02:12:32;;;;;;;28.45;3.67;;;6.20;99.90;;;;;;4986204;28;20141;-83
2023/01/14 02:15:26;;;;;;;21.10;3.17;;;6.30;99.90;;;;;;4965538;28;20149;-85
2023/01/14 02:17:57;;;;;;;21.45;2.95;;;6.30;99.90;;;;;;4987644;28;20070;-84
2023/01/14 02:20:41;;;;;;;23.23;4.40;;;6.30;99.90;;;;;;4977292;28;20046;-81
2023/01/14 02:23:29;;;;;;;24.52;3.03;;;6.30;99.90;;;;;;4992753;28;20053;-81
2023/01/14 02:26:19;;;;;;;24.98;3.38;;;6.30;99.90;;;;;;4973990;28;20078;-81
2023/01/14 02:29:15;;;;;;;21.98;2.63;;;6.30;99.90;;;;;;4990979;28;20042;-85
2023/01/14 02:32:05;;;;;;;15.63;2.97;;;6.30;99.90;;;;;;4978219;28;20077;-81
2023/01/14 02:34:59;;;;;;;20.17;3.38;;;6.30;99.90;;;;;;4978302;28;20546;-81
2023/01/14 02:37:51;;;;;;;24.38;3.08;;;6.30;99.90;;;;;;4966795;28;20054;-81
2023/01/14 02:40:24;;;;;;;22.63;3.65;;;6.30;99.90;;;;;;4973360;28;20124;-81
2023/01/14 02:46:15;;;;;;;23.13;3.17;;;6.20;99.90;;;;;;4995502;28;20061;-81
2023/01/14 02:48:42;;;;;;;21.48;2.83;;;6.20;99.90;;;;;;4994634;28;20069;-81
2023/01/14 02:51:10;;;;;;;16.60;2.83;;;6.20;99.90;;;;;;4959699;28;20042;-83
2023/01/14 02:53:36;;;;;;;25.60;3.85;;;6.10;99.90;;;;;;4982053;28;20516;-82
2023/01/14 02:56:02;;;;;;;26.05;3.08;;;6.00;99.90;;;;;;4968704;28;20078;-84
2023/01/14 02:58:37;;;;;;;19.00;3.42;;;6.00;99.90;;;;;;4975037;28;20153;-82
2023/01/14 03:01:08;;;;;;;15.30;2.53;;;6.00;99.90;;;;;;4980084;28;20085;-81
2023/01/14 03:04:16;;;;;;;18.77;3.50;;;5.90;99.90;;;;;;4979009;28;20057;-82
2023/01/14 03:07:05;;;;;;;26.88;4.90;;;5.80;99.90;;;;;;4971035;28;20058;-81
2023/01/14 03:09:49;;;;;;;26.90;3.22;;;5.80;99.90;;;;;;4997340;28;20457;-81
2023/01/14 03:12:43;;;;;;;25.65;3.47;;;5.80;99.90;;;;;;4997167;28;20503;-81
2023/01/14 03:15:29;;;;;;;14.38;2.92;;;5.70;99.90;;;;;;4990251;28;20818;-81
2023/01/14 03:18:07;;;;;;;20.85;2.95;;;5.80;99.90;;;;;;5004840;28;20064;-82
2023/01/14 03:20:38;;;;;;;21.02;2.83;;;5.70;99.90;;;;;;4977245;28;20111;-84
2023/01/14 03:23:09;;;;;;;23.23;2.60;;;5.70;99.90;;;;;;4996693;28;20053;-81
2023/01/14 03:25:40;;;;;;;23.20;3.25;;;5.60;99.90;;;;;;4980461;28;20042;-82
2023/01/14 03:28:10;;;;;;;24.20;4.43;;;5.60;99.90;;;;;;4983461;28;20038;-81
2023/01/14 03:30:39;;;;;;;19.52;2.63;;;5.60;99.90;;;;;;4980351;28;20049;-82
2023/01/14 03:33:12;;;;;;;17.52;3.03;;;5.60;99.90;;;;;;4995268;28;20068;-81
2023/01/14 03:35:41;;;;;;;18.45;2.72;;;5.60;99.90;;;;;;4966453;28;20054;-81
2023/01/14 03:38:12;;;;;;;15.65;2.47;;;5.50;99.90;;;;;;4974370;28;20636;-81
2023/01/14 03:40:41;;;;;;;15.80;2.67;;;5.60;99.90;;;;;;4994242;28;20176;-81
2023/01/14 03:43:17;;;;;;;18.55;3.40;;;5.60;99.90;;;;;;4979714;28;20488;-81
2023/01/14 03:45:45;;;;;;;22.95;4.38;;;5.60;99.90;;;;;;4995619;28;20546;-81
2023/01/14 03:48:11;;;;;;;24.60;4.10;;;5.50;99.90;;;;;;4962895;28;20042;-81
2023/01/14 03:50:58;;;;;;;27.73;3.08;;;5.50;99.90;;;;;;4975895;28;20129;-82
2023/01/14 03:53:49;;;;;;;;;;;5.40;99.90;;;;;;4990665;28;20053;-81
2023/01/14 03:56:44;;;;;;;19.27;2.92;;;5.40;99.90;;;;;;4986260;28;19947;-81
2023/01/14 03:59:15;;;;;;;22.20;2.75;;;5.40;99.90;;;;;;4969462;28;20057;-83
2023/01/14 04:01:51;;;;;;;17.75;2.45;;;5.30;99.90;;;;;;4991095;28;20089;-80
2023/01/14 04:04:17;;;;;;;19.95;2.95;;;5.30;99.90;;;;;;4985860;28;20050;-80
2023/01/14 04:06:43;;;;;;;19.67;2.53;;;5.30;99.90;;;;;;4976219;28;20478;-83
2023/01/14 04:09:10;;;;;;;19.75;2.55;;;5.30;99.90;;;;;;4962792;28;20046;-82
2023/01/14 04:11:36;;;;;;;22.17;2.90;;;5.40;99.90;;;;;;4991368;28;20042;-81
2023/01/14 04:16:47;;;;;;;19.52;2.92;;;5.40;99.90;;;;;;4991940;28;20091;-81
2023/01/14 04:19:13;;;;;;;25.17;3.95;;;5.40;99.90;;;;;;4994160;28;20120;-82
2023/01/14 04:21:39;;;;;;;20.05;3.00;;;5.40;99.90;;;;;;4977552;28;20053;-81
2023/01/14 04:24:05;;;;;;;20.25;2.90;;;5.30;99.90;;;;;;4994498;28;20087;-83
2023/01/14 04:26:31;;;;;;;12.85;2.15;;;5.20;99.90;;;;;;4994838;28;20073;-82
2023/01/14 04:28:57;;;;;;;24.42;2.97;;;5.30;99.90;;;;;;4960393;28;20141;-82
2023/01/14 04:31:23;;;;;;;16.15;2.80;;;5.30;99.90;;;;;;4976106;28;20050;-84
2023/01/14 04:33:49;;;;;;;17.33;2.58;;;5.30;99.90;;;;;;4993724;28;20057;-83
2023/01/14 04:36:14;;;;;;;23.30;3.45;;;5.20;99.90;;;;;;4991677;28;20120;-82
2023/01/14 04:38:40;;;;;;;16.48;3.88;;;5.20;99.90;;;;;;4986755;28;20077;-82
2023/01/14 04:41:06;;;;;;;21.30;2.88;;;5.10;99.90;;;;;;4989987;28;20077;-82
2023/01/14 04:43:32;;;;;;;20.50;2.60;;;5.20;99.90;;;;;;4966033;28;20462;-82
2023/01/14 04:45:57;;;;;;;22.98;3.00;;;5.10;99.90;;;;;;4979021;28;20057;-82
2023/01/14 04:48:24;;;;;;;13.93;3.05;;;5.10;99.90;;;;;;4995198;28;20089;-82
2023/01/14 04:50:51;;;;;;;17.05;2.45;;;5.10;99.90;;;;;;4966752;28;20038;-83
2023/01/14 04:53:25;;;;;;;26.95;3.58;;;5.10;99.90;;;;;;4992540;28;20381;-83
2023/01/14 04:55:53;;;;;;;23.95;2.72;;;5.00;99.90;;;;;;4959740;28;20077;-82
2023/01/14 04:58:19;;;;;;;23.13;2.95;;;5.10;99.90;;;;;;4980996;28;20136;-81
2023/01/14 05:00:53;;;;;;;23.77;2.80;;;5.00;99.90;;;;;;5161240;27;19919;-81
2023/01/14 05:03:19;;;;;;;17.88;2.60;;;5.00;99.90;;;;;;5115062;27;20047;-82
2023/01/14 05:05:45;;;;;;;15.88;2.80;;;5.00;99.90;;;;;;5103326;28;20047;-82
2023/01/14 05:08:12;;;;;;;25.95;3.35;;;5.00;99.90;;;;;;5110455;27;20127;-81
2023/01/14 05:10:38;;;;;;;18.35;2.85;;;5.20;99.90;;;;;;5127841;28;20049;-82
2023/01/14 05:13:07;;;;;;;23.80;3.72;;;5.10;99.90;;;;;;5128165;27;20078;-82
2023/01/14 05:15:41;;;;;;;21.70;3.20;;;5.00;99.90;;;;;;5094691;28;20047;-83
2023/01/14 05:18:13;;;;;;;22.95;3.40;;;5.10;99.90;;;;;;5107587;28;20082;-89
2023/01/14 05:20:40;;;;;;;17.58;3.15;;;5.10;99.90;;;;;;5098977;27;20400;-82
2023/01/14 05:23:13;;;;;;;23.00;3.42;;;5.10;99.90;;;;;;5097122;28;20054;-81
2023/01/14 05:25:39;;;;;;;21.52;3.53;;;5.10;99.90;;;;;;5111453;27;20129;-82
2023/01/14 05:28:08;;;;;;;20.13;3.13;;;5.10;99.90;;;;;;5077381;28;20441;-82
2023/01/14 05:30:34;;;;;;;21.92;3.40;;;5.10;99.90;;;;;;5105132;27;20046;-82
2023/01/14 05:33:00;;;;;;;24.02;3.38;;;5.10;99.90;;;;;;5096846;28;20051;-83
2023/01/14 05:35:26;;;;;;;21.05;3.60;;;5.10;99.90;;;;;;5093924;28;20431;-82
2023/01/14 05:37:59;;;;;;;30.98;4.22;;;5.10;99.90;;;;;;5101446;27;20077;-82
2023/01/14 05:40:28;;;;;;;26.63;3.55;;;5.10;99.90;;;;;;5112559;27;20050;-83
2023/01/14 05:45:45;;;;;;;31.70;3.85;;;5.10;99.90;;;;;;5098143;28;20058;-82
2023/01/14 05:48:11;;;;;;;21.08;3.08;;;5.10;99.90;;;;;;5080724;28;20047;-86
2023/01/14 05:50:38;;;;;;;27.20;4.57;;;5.10;99.90;;;;;;5093274;28;20491;-82
2023/01/14 05:53:05;;;;;;;28.50;4.53;;;5.20;99.90;;;;;;5094293;28;20126;-82
2023/01/14 05:55:31;;;;;;;31.65;4.53;;;5.10;99.90;;;;;;5106782;28;20088;-82
2023/01/14 05:58:01;;;;;;;21.88;3.92;;;5.30;99.90;;;;;;5103679;27;20042;-81
2023/01/14 06:06:25;;;;;;;24.83;4.45;;;5.00;99.90;;;;;;5120658;28;20044;-81
2023/01/14 06:08:56;;;;;;;27.92;4.85;;;5.20;99.90;;;;;;5102904;28;20120;-82
2023/01/14 06:11:24;;;;;;;28.20;5.53;;;5.20;99.90;;;;;;5081421;27;20059;-82
2023/01/14 06:13:52;;;;;;;29.48;4.70;;;5.10;99.90;;;;;;5093291;28;20044;-83
2023/01/14 06:16:18;;;;;;;26.33;5.25;;;5.10;99.90;;;;;;5077234;28;20044;-82
2023/01/14 06:18:45;;;;;;;27.13;4.82;;;5.10;99.90;;;;;;5075553;28;20060;-81
2023/01/14 06:21:13;;;;;;;26.60;5.10;;;5.10;99.90;;;;;;5088731;28;20141;-81
2023/01/14 06:23:39;;;;;;;32.65;5.50;;;5.10;99.90;;;;;;5083687;28;20050;-81
2023/01/14 06:26:10;;;;;;;30.55;6.13;;;5.10;99.90;;;;;;5108818;28;20130;-82
2023/01/14 06:28:36;;;;;;;26.38;5.50;;;5.10;99.90;;;;;;5079048;28;20052;-81
2023/01/14 06:31:01;;;;;;;36.30;6.57;;;5.10;99.90;;;;;;5058932;28;20047;-82
2023/01/14 06:33:27;;;;;;;33.92;5.82;;;5.10;99.90;;;;;;5064862;28;20499;-82
2023/01/14 06:35:55;;;;;;;32.58;6.47;;;5.10;99.90;;;;;;5078368;28;20048;-83
2023/01/14 06:38:21;;;;;;;28.52;6.38;;;5.10;99.90;;;;;;5075817;28;20131;-82
2023/01/14 06:40:46;;;;;;;37.50;7.75;;;5.10;99.90;;;;;;5079381;28;20177;-82
2023/01/14 06:43:12;;;;;;;38.15;6.95;;;5.10;99.90;;;;;;5076239;28;20130;-82
2023/01/14 06:45:38;;;;;;;35.17;6.30;;;5.10;99.90;;;;;;5072311;28;20849;-82
2023/01/14 06:48:04;;;;;;;40.88;7.60;;;5.20;99.90;;;;;;5076069;28;20050;-83
2023/01/14 06:50:29;;;;;;;37.60;7.45;;;5.10;99.90;;;;;;5065274;28;20043;-83
2023/01/14 06:53:02;;;;;;;31.35;6.20;;;5.10;99.90;;;;;;5069508;28;20040;-82
2023/01/14 06:55:28;;;;;;;39.20;5.90;;;5.10;99.90;;;;;;5090662;28;20075;-83
2023/01/14 06:57:54;;;;;;;39.83;6.97;;;5.10;99.90;;;;;;5072508;28;20044;-82
2023/01/14 07:00:20;;;;;;;42.80;6.43;;;5.10;99.90;;;;;;5096410;28;20109;-84
2023/01/14 07:02:45;;;;;;;32.95;6.60;;;5.10;99.90;;;;;;5083320;28;20052;-81
2023/01/14 07:05:11;;;;;;;29.67;6.35;;;5.20;99.90;;;;;;5101723;28;20123;-82
2023/01/14 07:07:43;;;;;;;39.78;6.20;;;5.20;99.90;;;;;;5075520;28;20135;-84
2023/01/14 07:10:09;;;;;;;44.25;6.13;;;5.30;99.90;;;;;;5074942;28;20044;-83
2023/01/14 07:12:35;;;;;;;38.38;5.93;;;5.30;99.90;;;;;;5078282;28;20089;-83
2023/01/14 07:15:01;;;;;;;35.80;6.70;;;5.30;99.90;;;;;;5076276;28;20040;-81
2023/01/14 07:17:26;;;;;;;33.53;5.35;;;5.40;99.90;;;;;;5066604;28;20050;-82
2023/01/14 07:19:52;;;;;;;40.55;6.20;;;5.50;99.90;;;;;;5089056;28;20040;-81
2023/01/14 07:22:18;;;;;;;44.00;6.53;;;5.40;99.90;;;;;;5070001;28;20134;-84
2023/01/14 07:24:44;;;;;;;39.50;6.57;;;5.40;99.90;;;;;;5081034;28;20048;-81
2023/01/14 07:27:09;;;;;;;31.05;5.40;;;5.40;99.90;;;;;;5058854;28;20544;-83
2023/01/14 07:29:35;;;;;;;34.13;6.30;;;5.40;99.90;;;;;;5075534;28;20075;-81
2023/01/14 07:32:01;;;;;;;46.53;6.45;;;5.40;99.90;;;;;;5084831;28;20473;-81
2023/01/14 07:34:27;;;;;;;48.42;7.78;;;5.50;99.90;;;;;;5074846;28;20046;-86
2023/01/14 07:36:52;;;;;;;34.03;6.03;;;5.50;99.90;;;;;;5061860;28;20051;-81
2023/01/14 07:39:18;;;;;;;36.00;7.30;;;5.50;99.90;;;;;;5078613;28;20397;-82
2023/01/14 07:41:44;;;;;;;36.55;6.57;;;5.60;99.90;;;;;;5091211;28;20048;-81
2023/01/14 07:44:09;;;;;;;34.33;6.97;;;5.60;99.90;;;;;;5103605;28;20048;-81
2023/01/14 07:46:35;;;;;;;34.97;6.05;;;5.60;99.90;;;;;;5059895;28;20040;-82
2023/01/14 07:49:01;;;;;;;38.95;6.70;;;5.60;99.90;;;;;;5077377;28;20063;-82
2023/01/14 07:51:26;;;;;;;34.35;6.10;;;5.60;99.90;;;;;;5102253;28;20046;-81
2023/01/14 07:53:52;;;;;;;35.00;5.80;;;5.70;99.90;;;;;;5073706;28;20044;-81
2023/01/14 07:56:18;;;;;;;30.60;6.03;;;5.60;99.90;;;;;;5081231;28;20493;-81
2023/01/14 07:58:43;;;;;;;38.10;6.22;;;5.70;99.90;;;;;;5106910;27;20038;-82
2023/01/14 08:01:10;;;;;;;33.97;6.43;;;5.70;99.90;;;;;;5063643;27;20054;-82
2023/01/14 08:03:36;;;;;;;36.97;7.50;;;5.80;99.90;;;;;;5126893;27;20559;-83
2023/01/14 08:06:13;;;;;;;34.80;6.25;;;5.70;99.90;;;;;;5107560;27;20043;-83
2023/01/14 08:08:39;;;;;;;29.33;6.45;;;5.80;99.90;;;;;;5078940;28;20039;-84
2023/01/14 08:11:05;;;;;;;31.88;5.47;;;5.80;99.90;;;;;;5078541;28;20491;-81
2023/01/14 08:13:33;;;;;;;40.70;5.80;;;5.80;99.90;;;;;;5082528;27;20507;-86
2023/01/14 08:16:01;;;;;;;40.63;6.82;;;5.80;99.90;;;;;;5081954;28;20055;-81
2023/01/14 08:18:27;;;;;;;37.28;5.63;;;5.80;99.90;;;;;;5082168;27;20075;-83
2023/01/14 08:21:00;;;;;;;30.10;5.78;;;5.80;99.90;;;;;;5099413;27;20061;-83
2023/01/14 08:23:26;;;;;;;36.88;5.55;;;6.00;99.90;;;;;;5098432;28;20040;-88
2023/01/14 08:25:52;;;;;;;40.60;5.68;;;5.80;99.90;;;;;;5071000;27;20047;-87
2023/01/14 08:28:19;;;;;;;43.17;5.72;;;5.80;99.90;;;;;;5079201;27;20528;-82
2023/01/14 08:30:44;;;;;;;34.92;5.45;;;5.80;99.90;;;;;;5097407;27;20060;-81
2023/01/14 08:33:10;;;;;;;39.80;5.93;;;5.80;99.90;;;;;;5102886;27;20040;-81
2023/01/14 08:35:40;;;;;;;37.08;6.05;;;5.80;99.90;;;;;;5087886;27;20046;-82
2023/01/14 08:38:06;;;;;;;32.20;5.70;;;5.80;99.90;;;;;;5087801;28;20105;-81
2023/01/14 08:40:32;;;;;;;33.88;5.85;;;5.80;99.90;;;;;;5098386;27;20413;-82
2023/01/14 08:42:58;;;;;;;34.30;5.53;;;5.80;99.90;;;;;;5105750;28;20082;-84
2023/01/14 08:45:23;;;;;;;40.53;5.30;;;5.80;99.90;;;;;;5093560;27;20079;-85
2023/01/14 08:47:49;;;;;;;40.08;5.68;;;5.70;99.90;;;;;;5098336;28;20043;-82
2023/01/14 08:50:15;;;;;;;32.00;4.82;;;5.80;99.90;;;;;;5075094;28;20043;-78
2023/01/14 08:52:41;;;;;;;38.55;6.47;;;5.80;99.90;;;;;;5103775;27;20070;-81
2023/01/14 08:55:07;;;;;;;38.45;5.93;;;5.80;99.90;;;;;;5093398;28;20489;-82
2023/01/14 08:57:33;;;;;;;33.15;5.20;;;5.80;99.90;;;;;;5093059;28;20035;-82
2023/01/14 08:59:58;;;;;;;37.28;5.10;;;5.80;99.90;;;;;;5094259;27;20053;-81
2023/01/14 09:02:24;;;;;;;33.10;5.80;;;5.80;99.90;;;;;;5078372;28;20075;-80
2023/01/14 09:04:50;;;;;;;36.72;5.43;;;5.80;99.90;;;;;;5078211;28;20441;-81
2023/01/14 09:18:12;;;;;;;45.78;5.68;;;5.80;99.90;;;;;;5098790;28;20618;-82
2023/01/14 09:20:40;;;;;;;34.08;5.60;;;5.90;99.90;;;;;;5077491;28;20122;-82
2023/01/14 09:23:08;;;;;;;31.23;5.45;;;5.90;99.90;;;;;;5108545;28;20048;-82
2023/01/14 09:25:33;;;;;;;34.85;5.55;;;5.90;99.90;;;;;;5085859;28;20071;-81
2023/01/14 09:27:59;;;;;;;37.95;5.80;;;5.90;99.90;;;;;;5096516;28;20043;-81
2023/01/14 09:30:26;;;;;;;48.92;6.78;;;5.90;99.90;;;;;;5069022;28;20451;-81
2023/01/14 09:32:52;;;;;;;35.67;6.20;;;5.90;99.90;;;;;;5090623;28;20161;-81
2023/01/14 09:35:18;;;;;;;25.73;5.55;;;6.00;99.90;;;;;;5105788;28;20134;-80
2023/01/14 09:37:44;;;;;;;34.97;5.80;;;5.90;99.90;;;;;;5095493;28;20039;-86
2023/01/14 09:40:10;;;;;;;30.85;5.95;;;6.00;99.90;;;;;;5086146;28;20046;-81
2023/01/14 09:42:38;;;;;;;27.35;6.18;;;5.90;99.90;;;;;;5109878;28;20047;-80
2023/01/14 09:45:25;;;;;;;22.38;5.20;;;6.00;99.90;;;;;;5101364;28;20082;-80
2023/01/14 09:47:52;;;;;;;25.23;4.80;;;6.00;99.90;;;;;;5086690;28;20388;-80
2023/01/14 09:50:23;;;;;;;23.48;4.63;;;6.00;99.90;;;;;;5094807;27;20052;-81
2023/01/14 09:53:16;;;;;;;21.38;4.43;;;6.00;99.90;;;;;;5098103;28;20056;-81
2023/01/14 09:55:48;;;;;;;24.88;4.88;;;6.00;99.90;;;;;;5100667;27;20135;-80
2023/01/14 09:58:37;;;;;;;26.23;5.47;;;6.00;99.90;;;;;;5104430;27;20400;-80
2023/01/14 10:01:14;;;;;;;20.30;4.45;;;6.10;99.90;;;;;;5107084;28;20138;-83
2023/01/14 10:03:49;;;;;;;24.02;4.43;;;6.00;99.90;;;;;;5096064;28;20051;-82
2023/01/14 10:06:17;;;;;;;26.42;4.93;;;6.10;99.90;;;;;;5093872;27;20054;-80
2023/01/14 10:08:57;;;;;;;22.58;5.72;;;6.10;99.90;;;;;;5081423;28;20047;-82
2023/01/14 10:11:25;;;;;;;23.25;4.35;;;6.10;99.90;;;;;;5110801;28;20100;-83
2023/01/14 10:14:09;;;;;;;19.15;4.95;;;6.10;99.90;;;;;;5090292;27;20051;-80
2023/01/14 10:16:41;;;;;;;24.90;4.95;;;6.20;99.90;;;;;;5087598;27;20073;-80
2023/01/14 10:19:36;;;;;;;15.85;4.50;;;6.20;99.90;;;;;;5098209;28;20072;-81
2023/01/14 10:22:24;;;;;;;21.55;4.05;;;6.20;99.90;;;;;;5090574;28;20047;-80
2023/01/14 10:24:50;;;;;;;15.57;4.30;;;6.30;99.90;;;;;;5096486;28;20489;-82
2023/01/14 10:27:18;;;;;;;17.90;4.10;;;6.30;99.90;;;;;;5091787;27;20061;-81
2023/01/14 10:29:46;;;;;;;18.52;4.43;;;6.40;99.90;;;;;;5085175;28;20047;-83
2023/01/14 10:32:19;;;;;;;18.15;4.45;;;6.40;99.90;;;;;;5097545;28;20547;-82
2023/01/14 10:34:54;;;;;;;14.95;4.30;;;6.40;99.90;;;;;;5081027;28;20040;-80
2023/01/14 10:37:20;;;;;;;18.55;4.55;;;6.40;99.90;;;;;;5100656;27;20032;-81
2023/01/14 10:39:50;;;;;;;17.25;4.20;;;6.50;99.90;;;;;;5093816;27;20065;-80
2023/01/14 10:42:29;;;;;;;16.77;4.65;;;6.50;99.90;;;;;;5106505;27;20036;-82
2023/01/14 10:44:59;;;;;;;17.25;4.82;;;6.50;99.90;;;;;;5111785;27;20091;-81
2023/01/14 10:47:26;;;;;;;19.83;4.95;;;6.50;99.90;;;;;;5079350;28;20040;-81
2023/01/14 10:49:57;;;;;;;16.00;4.47;;;6.60;99.90;;;;;;5108763;28;20051;-88
2023/01/14 10:52:24;;;;;;;14.75;5.07;;;6.50;99.90;;;;;;5080583;28;20389;-80
2023/01/14 10:55:11;;;;;;;14.48;5.78;;;6.50;99.90;;;;;;5097014;27;20043;-83
2023/01/14 10:58:05;;;;;;;18.80;5.38;;;6.60;99.90;;;;;;5109104;28;20039;-82
2023/01/14 11:00:33;;;;;;;15.13;5.60;;;6.60;99.90;;;;;;5083815;28;20492;-81
2023/01/14 11:03:00;;;;;;;16.63;6.47;;;6.70;99.90;;;;;;5089414;28;20511;-82
2023/01/14 11:05:39;;;;;;;14.50;6.78;;;6.80;99.90;;;;;;5094896;28;20048;-82
2023/01/14 11:08:14;;;;;;;13.68;4.55;;;6.80;99.90;;;;;;5098051;27;20400;-80
2023/01/14 11:10:41;;;;;;;15.23;5.35;;;6.90;99.90;;;;;;5091538;28;20063;-80
2023/01/14 11:13:32;;;;;;;11.40;4.65;;;6.90;99.90;;;;;;5096406;27;20062;-85
2023/01/14 11:16:01;;;;;;;14.80;4.88;;;7.00;99.90;;;;;;5084794;28;20078;-86
2023/01/14 11:18:27;;;;;;;12.95;4.90;;;7.00;99.90;;;;;;5063169;28;20503;-80
2023/01/14 11:21:15;;;;;;;14.35;5.15;;;6.90;99.90;;;;;;5103379;27;20040;-87
2023/01/14 11:23:53;;;;;;;12.85;5.47;;;6.90;99.90;;;;;;5096722;28;20047;-85
2023/01/14 11:26:29;;;;;;;12.68;4.65;;;6.90;99.90;;;;;;5085542;28;20123;-85
2023/01/14 11:29:14;;;;;;;10.50;4.70;;;7.00;99.90;;;;;;5090102;27;20524;-87
2023/01/14 11:31:41;;;;;;;12.93;5.33;;;7.00;99.90;;;;;;5097267;28;20131;-80
2023/01/14 11:34:37;;;;;;;9.43;4.90;;;6.90;99.90;;;;;;5101780;27;20051;-80
2023/01/14 11:37:09;;;;;;;14.48;5.63;;;6.90;99.90;;;;;;5100795;28;20051;-81
2023/01/14 11:39:40;;;;;;;18.33;5.70;;;7.00;99.90;;;;;;5096321;27;20492;-83
2023/01/14 11:42:31;;;;;;;17.40;5.15;;;6.90;99.90;;;;;;5084106;27;20058;-85
2023/01/14 11:45:12;;;;;;;9.40;4.00;;;7.00;99.90;;;;;;5081930;28;20075;-85
2023/01/14 11:47:53;;;;;;;11.25;4.20;;;7.00;99.90;;;;;;5097764;28;20400;-85
2023/01/14 11:50:22;;;;;;;15.85;5.03;;;6.90;99.90;;;;;;5090359;27;20138;-86
2023/01/14 11:53:04;;;;;;;11.48;4.03;;;7.00;99.90;;;;;;5084515;28;20058;-85
2023/01/14 11:55:44;;;;;;;12.02;4.20;;;7.00;99.90;;;;;;5083041;27;20088;-86
2023/01/14 11:58:32;;;;;;;15.77;6.55;;;7.00;99.90;;;;;;5101774;28;20040;-86
2023/01/14 12:01:35;;;;;;;15.20;5.60;;;7.00;99.90;;;;;;5096550;28;20936;-85
2023/01/14 12:07:49;;;;;;;15.23;4.90;;;7.10;99.90;;;;;;5090649;28;20071;-86
2023/01/14 12:10:30;;;;;;;14.38;4.13;;;7.10;99.90;;;;;;5062650;28;20055;-86
2023/01/14 12:16:52;;;;;;;10.55;4.60;;;7.10;99.90;;;;;;5090916;28;20044;-86
2023/01/14 12:19:22;;;;;;;10.68;4.80;;;7.20;99.90;;;;;;5078288;28;20051;-87
2023/01/14 12:22:12;;;;;;;8.32;3.47;;;7.20;99.90;;;;;;5089833;28;20036;-88
2023/01/14 12:24:46;;;;;;;13.02;5.45;;;7.20;99.90;;;;;;5094593;28;20129;-87
2023/01/14 12:27:41;;;;;;;14.00;4.10;;;7.20;99.90;;;;;;5074334;28;20083;-87
2023/01/14 12:30:30;;;;;;;20.05;9.27;;;7.20;99.90;;;;;;5075272;28;20051;-89
2023/01/14 12:33:08;;;;;;;10.75;4.78;;;7.30;99.90;;;;;;5088594;28;20119;-87
2023/01/14 12:35:44;;;;;;;14.85;4.03;;;7.30;99.90;;;;;;5087478;28;20052;-87
2023/01/14 12:47:04;;;;;;;11.77;4.57;;;7.40;99.90;;;;;;5087638;28;20048;-88
2023/01/14 12:52:51;;;;;;;10.45;3.50;;;7.50;99.90;;;;;;5091104;28;20253;-90
2023/01/14 12:59:34;;;;;;;;;;;;;;;;;;;;;
2023/01/14 13:02:32;;;;;;;;;;;;;;;;;;;;;
2023/01/14 13:05:39;;;;;;;;;;;;;;;;;;;;;
2023/01/14 13:08:31;;;;;;;12.05;4.07;;;7.80;99.90;;;;;;5096202;28;20059;-89
2023/01/14 13:11:21;;;;;;;7.47;3.50;;;7.80;99.90;;;;;;5096724;28;20460;-88
2023/01/14 13:14:34;;;;;;;6.25;3.05;;;7.90;99.90;;;;;;5076025;28;20051;-91
2023/01/14 13:18:17;;;;;;;;;;;;;;;;;;;;;
2023/01/14 13:21:22;;;;;;;;;;;;;;;;;;;;;
2023/01/14 13:23:57;;;;;;;6.57;3.35;;;8.10;99.90;;;;;;5091259;27;20047;-84
2023/01/14 13:26:28;;;;;;;7.65;3.20;;;8.10;99.90;;;;;;5093431;27;20272;-86
2023/01/14 13:32:55;;;;;;;5.50;2.58;;;8.20;99.90;;;;;;5070906;28;20086;-88
2023/01/14 13:38:31;;;;;;;7.07;3.10;;;8.30;99.90;;;;;;5073166;28;20056;-87
2023/01/14 13:41:52;;;;;;;8.55;4.80;;;8.50;99.90;;;;;;5093909;28;20052;-87
2023/01/14 13:44:42;;;;;;;7.25;3.20;;;8.40;99.90;;;;;;5047859;28;20060;-90
2023/01/14 13:47:36;;;;;;;;;;;;;;;;;;;;;
2023/01/14 13:50:33;;;;;;;23.23;7.85;;;8.60;99.90;;;;;;5076691;28;20050;-87
2023/01/14 13:53:34;;;;;;;6.60;3.55;;;8.60;99.90;;;;;;5051650;28;20059;-87
2023/01/14 13:56:02;;;;;;;7.75;4.15;;;8.50;99.90;;;;;;5051600;28;20401;-80
2023/01/14 13:58:30;;;;;;;5.38;2.92;;;8.70;99.90;;;;;;5074142;28;20060;-81
2023/01/14 14:01:43;;;;;;;6.47;2.70;;;8.60;99.90;;;;;;5065467;28;20047;-81
2023/01/14 14:04:10;;;;;;;3.88;2.60;;;8.70;99.90;;;;;;5081659;28;20051;-80
2023/01/14 14:06:42;;;;;;;7.90;4.50;;;8.70;99.90;;;;;;5086357;27;20054;-80
2023/01/14 14:09:37;;;;;;;5.20;3.17;;;8.80;99.90;;;;;;5100270;27;20169;-82
2023/01/14 14:15:12;;;;;;;7.05;3.13;;;8.90;99.90;;;;;;5117635;27;20047;-82
2023/01/14 14:17:42;;;;;;;4.45;2.63;;;8.90;99.90;;;;;;5110476;27;20533;-84
2023/01/14 14:20:16;;;;;;;6.30;3.08;;;9.00;99.90;;;;;;5109823;28;20468;-82
2023/01/14 14:22:57;;;;;;;5.60;3.25;;;9.00;99.90;;;;;;5109894;27;20047;-81